• Join FlightAware (Why Join?)
  • Login
  • US Flag 
06:15PM EST


 

Airport Tracker/Info


-or-


 

Live Flight TrackerFlight Track Log ✈ N173DS ✈ 29-Dec-2013 ✈ KPBI - KTPA

Flight Track Log - Related Links

Times and Time Zones

All times are in EST time to prevent confusion due to time zone crossing. See the N173DS flight status page for this flight to view local times or setup timezone preferences in your user account.

Time Position Orientation Groundspeed Altitude Reporting Facility
EST Latitude Longitude Course Direction KTS MPH feet Rate Location/Type
05:58PM 26.8025 -80.0103 350° North 269 310 7,500  Level Miami Center
05:59PM 26.8275 -80.1017 287° West 229 264 10,400 2,160 Climbing Miami Center
06:00PM 26.8442 -80.2022 281° West 299 344 11,900 780 Climbing Miami Center
06:01PM 26.9854 -80.6536 236° Southwest  Level Estimated
06:01PM 26.8603 -80.3169 279° West 348 400 12,000  Level Miami Center
06:02PM 26.8933 -80.4181 290° West 377 434 14,500 2,760 Climbing Miami Center
06:03PM 26.9300 -80.5425 288° West 384 442 17,600 2,700 Climbing Miami Center
06:04PM 26.9686 -80.6556 291° West 404 465 19,900 1,200 Climbing Miami Center
06:05PM 27.0114 -80.7781 291° West 415 478 20,000  Climbing Miami Center
06:06PM 27.0519 -80.9008 290° West 420 483 20,000  Level Miami Center
06:07PM 27.0925 -81.0189 291° West 420 483 20,000  Level Miami Center
06:08PM 27.1364 -81.1558 290° West 420 483 20,000 -180 Level Miami Center
06:09PM 27.1767 -81.2786 290° West 420 483 19,700 -600 Descending Miami Center
06:10PM 27.2147 -81.3967 290° West 415 478 18,800 -1,140 Descending Miami Center
06:11PM 27.2525 -81.5175 289° West 409 471 17,500 -1,320 Descending Miami Center
06:12PM 27.2906 -81.6311 291° West 404 465 16,200 -1,260 Descending Miami Center
06:13PM 27.3286 -81.7447 291° West 398 458 15,000 -1,200 Descending Miami Center
06:14PM 27.3567 -81.8347 289° West 391 450 13,800 -1,260 Descending Miami Center
06:15PM 27.3944 -81.9533 290° West 381 438 12,500 -1,140 Descending Miami Center
06:16PM 27.4281 -82.0600 290° West 369 425 11,600 -840 Descending Miami Center
06:17PM 27.4706 -82.1603 296° West 364 419 10,900 -360 Descending Miami Center
06:18PM 27.5486 -82.2481 315° West 359 413 10,900  Level Miami Center
06:19PM 27.6083 -82.3236 312° West 366 421 10,900 -1,080 Level Miami Center
06:20PM 27.6500 -82.4167 297° West 304 350 8,800 -2,460 Descending Tampa TRACON
06:21PM 27.6833 -82.4833 299° West 249 287 6,400 -2,340 Descending Tampa TRACON
06:22PM 27.7500 -82.5333 326° Northwest 226 260 3,900 -1,620 Descending Tampa TRACON
06:23PM 27.8000 -82.5333 360° North 194 223 3,100 -660 Descending Tampa TRACON
06:24PM 27.8500 -82.5333 360° North 179 206 2,700 -660 Descending Tampa TRACON
06:25PM 27.8833 -82.5333 360° North 147 169 1,800 -900 Descending Tampa TRACON
06:26PM 27.9333 -82.5333 360° North 134 154 900 -900 Descending Tampa TRACON
06:28PM 27.9755 -82.5332 North  Level Estimated
06:35PM 27.9755 -82.5332 190° South  Level Estimated
06:36PM 27.9755 -82.5332 190° South  Level Estimated